Eureka, California
Current Conditions -  °F | °C
As of 12:53 AM on Saturday 25 Oct 2014 (Local Time) from KACV Reporting Station
Broken Clouds Broken Clouds  
Wind Chill: 67°   Ceiling: 9500
Heat Index: 67°   Visibility: 10mi
Dew Point: 47°   Wind: 23mph
Humidity: 49%   Direction: 160°SSE
Pressure: 29.62"   Gusts: 32mph
Location:  40.8°N, 124.15°W
Report Text: KACV 250753Z AUTO 16020G28KT 10SM SCT075 BKN095 19/08 A2962 RMK AO2 PK WND 15028/0725 SLP031 T01940083 402280128
Loading
Personal Weather Stations






























Interactive Weather Map
Tropical Storm Tracking
New forecast layout! Learn more

10-Day Weather Forecast

Advertisements
Track Severe Weather on mobile